Time;durP1;ratioP1;P1;durP2;ratioP2;P2;SDS_P1;SDS_P2;PMS_P1;PMS_P2;Temp;Humidity;BMP_temperature;BMP_pressure;BME280_temperature;BME280_humidity;BME280_pressure;Samples;Min_cycle;Max_cycle;Signal;HPM_P1;HPM_P2
2021/11/03 00:02:05;;;;;;;20.98;19.77;;;7.10;91.90;;;;;;5094169;28;20219;-71
2021/11/03 00:04:33;;;;;;;21.77;20.48;;;7.10;92.00;;;;;;5089043;27;20318;-71
2021/11/03 00:07:00;;;;;;;21.38;20.17;;;7.20;91.40;;;;;;5094699;28;20226;-71
2021/11/03 00:09:27;;;;;;;21.35;20.15;;;7.30;91.00;;;;;;5090015;28;20187;-71
2021/11/03 00:11:56;;;;;;;23.45;21.95;;;7.20;90.90;;;;;;5089614;28;20626;-71
2021/11/03 00:14:22;;;;;;;20.77;19.58;;;7.20;91.10;;;;;;5089314;28;20201;-71
2021/11/03 00:16:49;;;;;;;22.15;20.75;;;7.20;91.70;;;;;;5091862;28;20195;-71
2021/11/03 00:19:16;;;;;;;20.92;19.73;;;7.20;91.90;;;;;;5091056;28;20215;-71
2021/11/03 00:21:43;;;;;;;21.90;20.60;;;7.10;92.20;;;;;;5088085;28;20223;-71
2021/11/03 00:24:10;;;;;;;20.70;19.50;;;7.10;92.30;;;;;;5091093;28;20274;-70
2021/11/03 00:26:37;;;;;;;388.13;54.65;;;7.20;92.40;;;;;;5087014;28;20202;-71
2021/11/03 00:29:05;;;;;;;22.65;21.05;;;7.20;93.00;;;;;;5091667;28;20199;-71
2021/11/03 00:31:32;;;;;;;21.13;19.92;;;7.30;93.10;;;;;;5087567;28;20196;-71
2021/11/03 00:33:59;;;;;;;23.00;21.50;;;7.30;92.60;;;;;;5100519;28;20425;-71
2021/11/03 00:36:26;;;;;;;22.23;20.88;;;7.30;92.40;;;;;;5089577;28;20195;-71
2021/11/03 00:38:53;;;;;;;23.08;21.67;;;7.30;92.40;;;;;;5092142;28;20639;-71
2021/11/03 00:41:20;;;;;;;23.08;21.58;;;7.40;91.90;;;;;;5090782;28;20214;-71
2021/11/03 00:43:46;;;;;;;22.80;21.42;;;7.50;91.60;;;;;;5091301;28;20195;-71
2021/11/03 00:46:15;;;;;;;22.60;21.30;;;7.40;91.40;;;;;;5094752;28;20195;-71
2021/11/03 00:48:41;;;;;;;23.20;21.80;;;7.40;91.40;;;;;;5089688;28;20188;-71
2021/11/03 00:51:09;;;;;;;22.35;21.05;;;7.30;91.80;;;;;;5089045;28;20682;-71
2021/11/03 00:53:36;;;;;;;22.67;21.38;;;7.50;91.70;;;;;;5088790;28;20227;-71
2021/11/03 00:56:02;;;;;;;23.30;21.88;;;7.40;91.10;;;;;;5092802;28;20198;-71
2021/11/03 00:58:29;;;;;;;22.48;21.05;;;7.20;91.20;;;;;;5091057;28;20294;-71
2021/11/03 01:00:56;;;;;;;21.45;20.05;;;7.30;91.70;;;;;;5089070;28;20215;-71
2021/11/03 01:03:24;;;;;;;22.33;20.92;;;7.30;91.80;;;;;;5092587;28;20237;-71
2021/11/03 01:05:52;;;;;;;21.02;19.73;;;7.30;92.00;;;;;;5091061;28;20195;-71
2021/11/03 01:08:19;;;;;;;52.55;23.25;;;7.30;92.70;;;;;;5094958;28;20199;-70
2021/11/03 01:10:49;;;;;;;25.73;23.35;;;7.40;94.20;;;;;;5087884;28;20191;-71
2021/11/03 01:13:18;;;;;;;21.40;20.08;;;7.40;93.70;;;;;;5089251;28;20218;-70
2021/11/03 01:15:46;;;;;;;21.95;20.65;;;7.50;94.00;;;;;;5087593;28;20210;-70
2021/11/03 01:18:13;;;;;;;21.45;20.23;;;7.50;93.20;;;;;;5095677;28;20222;-71
2021/11/03 01:20:43;;;;;;;22.42;21.02;;;7.60;92.70;;;;;;5088751;28;20207;-71
2021/11/03 01:23:10;;;;;;;23.50;22.08;;;7.60;92.30;;;;;;5090078;28;20223;-71
2021/11/03 01:25:37;;;;;;;23.08;21.73;;;7.50;92.90;;;;;;5086519;28;20203;-71
2021/11/03 01:28:05;;;;;;;23.27;21.90;;;7.60;93.50;;;;;;5082601;28;20199;-71
2021/11/03 01:30:32;;;;;;;23.67;21.95;;;7.70;92.80;;;;;;5082659;28;20223;-71
2021/11/03 01:33:00;;;;;;;23.55;22.15;;;7.70;92.20;;;;;;5088427;28;20219;-71
2021/11/03 01:35:27;;;;;;;22.80;21.40;;;7.70;92.20;;;;;;5088739;28;20198;-71
2021/11/03 01:37:56;;;;;;;22.05;20.75;;;7.70;92.10;;;;;;5093200;27;20203;-71
2021/11/03 01:40:27;;;;;;;21.70;20.30;;;7.80;91.90;;;;;;5088096;28;20211;-72
2021/11/03 01:42:54;;;;;;;23.65;21.90;;;7.80;91.80;;;;;;5089621;28;20302;-71
2021/11/03 01:45:24;;;;;;;22.73;21.33;;;7.70;92.00;;;;;;5083653;28;20214;-71
2021/11/03 01:47:53;;;;;;;23.15;21.65;;;7.70;93.90;;;;;;5095702;27;20195;-72
2021/11/03 01:50:28;;;;;;;70.90;25.77;;;7.80;93.00;;;;;;5087852;28;20274;-71
2021/11/03 01:53:03;;;;;;;20.77;19.48;;;7.80;94.80;;;;;;5089852;28;20214;-71
2021/11/03 01:55:31;;;;;;;21.70;20.48;;;7.70;94.40;;;;;;5086724;28;20194;-71
2021/11/03 01:58:07;;;;;;;19.65;18.65;;;7.70;93.80;;;;;;5093310;27;20278;-71
2021/11/03 02:00:38;;;;;;;21.00;19.70;;;7.80;93.00;;;;;;5086994;28;20215;-71
2021/11/03 02:03:09;;;;;;;22.38;20.88;;;7.90;92.30;;;;;;5088689;28;20224;-71
2021/11/03 02:05:37;;;;;;;20.15;19.05;;;7.90;92.10;;;;;;5084064;28;20286;-72
2021/11/03 02:08:08;;;;;;;21.00;19.90;;;8.00;91.60;;;;;;5089551;28;20203;-71
2021/11/03 02:10:34;;;;;;;21.23;19.85;;;8.00;91.10;;;;;;5086335;28;20270;-71
2021/11/03 02:13:02;;;;;;;21.55;20.25;;;7.90;90.80;;;;;;5087352;28;20253;-71
2021/11/03 02:15:29;;;;;;;22.15;20.85;;;7.80;90.90;;;;;;5085071;28;20828;-71
2021/11/03 02:17:57;;;;;;;22.73;21.45;;;7.80;91.00;;;;;;5089162;28;20290;-71
2021/11/03 02:20:26;;;;;;;23.35;21.83;;;7.80;91.30;;;;;;5085073;28;20710;-71
2021/11/03 02:23:04;;;;;;;21.42;20.30;;;7.70;91.50;;;;;;5089280;28;20225;-71
2021/11/03 02:25:36;;;;;;;21.77;20.48;;;7.50;91.70;;;;;;5077657;28;20187;-71
2021/11/03 02:28:06;;;;;;;78.90;25.88;;;7.40;92.20;;;;;;5091392;28;20201;-71
2021/11/03 02:30:34;;;;;;;21.83;20.63;;;7.40;93.80;;;;;;5079134;28;20187;-71
2021/11/03 02:33:04;;;;;;;21.48;20.27;;;7.40;95.00;;;;;;5088118;28;20222;-71
2021/11/03 02:35:31;;;;;;;22.20;20.90;;;7.50;94.30;;;;;;5086695;28;20200;-71
2021/11/03 02:37:59;;;;;;;20.92;19.73;;;7.60;93.60;;;;;;5078188;28;20555;-71
2021/11/03 02:40:52;;;;;;;21.75;20.35;;;7.60;93.40;;;;;;5084868;28;20216;-71
2021/11/03 02:43:24;;;;;;;21.67;20.30;;;7.60;93.80;;;;;;5088967;28;20215;-70
2021/11/03 02:45:53;;;;;;;22.80;20.90;;;7.60;94.30;;;;;;5081725;28;20287;-70
2021/11/03 02:48:21;;;;;;;21.92;20.52;;;7.60;95.70;;;;;;5088538;28;20197;-71
2021/11/03 02:51:04;;;;;;;22.15;20.80;;;7.70;95.60;;;;;;5091473;28;20657;-72
2021/11/03 02:53:33;;;;;;;22.73;21.33;;;7.70;95.10;;;;;;5087231;27;20213;-71
2021/11/03 02:56:03;;;;;;;20.95;19.75;;;7.60;94.90;;;;;;5091554;28;20563;-71
2021/11/03 02:58:30;;;;;;;21.00;19.73;;;7.60;94.70;;;;;;5086659;28;20670;-71
2021/11/03 03:00:58;;;;;;;22.13;20.90;;;7.60;94.50;;;;;;5086363;28;20215;-71
2021/11/03 03:03:25;;;;;;;21.65;20.40;;;7.70;93.90;;;;;;5085843;28;20214;-71
2021/11/03 03:05:57;;;;;;;22.50;21.13;;;7.60;93.30;;;;;;5088075;28;20203;-70
2021/11/03 03:08:25;;;;;;;21.60;20.30;;;7.60;93.40;;;;;;5088217;28;20787;-71
2021/11/03 03:10:52;;;;;;;21.83;20.52;;;7.50;93.70;;;;;;5086081;28;20803;-71
2021/11/03 03:13:20;;;;;;;21.42;20.33;;;7.50;93.70;;;;;;5088198;28;20237;-71
2021/11/03 03:15:47;;;;;;;21.15;19.95;;;7.50;93.60;;;;;;5082138;28;20314;-72
2021/11/03 03:18:14;;;;;;;19.65;18.60;;;7.50;93.70;;;;;;5088171;28;20197;-71
2021/11/03 03:20:41;;;;;;;20.73;19.52;;;7.60;93.40;;;;;;5085921;28;20219;-70
2021/11/03 03:23:08;;;;;;;21.38;20.08;;;7.60;93.10;;;;;;5092621;28;20237;-71
2021/11/03 03:25:37;;;;;;;40.42;23.00;;;7.70;92.80;;;;;;5085073;28;20199;-71
2021/11/03 03:28:05;;;;;;;20.27;19.17;;;7.70;92.90;;;;;;5087434;28;20187;-71
2021/11/03 03:30:34;;;;;;;19.88;18.83;;;7.70;93.10;;;;;;5086463;28;20581;-71
2021/11/03 03:33:00;;;;;;;20.60;19.40;;;7.80;92.90;;;;;;5086076;28;20211;-71
2021/11/03 03:35:27;;;;;;;21.25;20.00;;;7.70;92.50;;;;;;5086745;28;20192;-72
2021/11/03 03:37:54;;;;;;;21.45;20.23;;;7.70;92.50;;;;;;5087539;28;20206;-71
2021/11/03 03:40:21;;;;;;;22.48;21.10;;;7.60;92.60;;;;;;5086560;28;20211;-71
2021/11/03 03:42:48;;;;;;;21.30;20.20;;;7.80;92.60;;;;;;5087211;28;20211;-71
2021/11/03 03:45:15;;;;;;;192.70;34.40;;;7.70;92.80;;;;;;5083238;28;20281;-72
2021/11/03 03:47:44;;;;;;;21.02;19.83;;;7.80;94.00;;;;;;5086986;28;20290;-71
2021/11/03 03:50:12;;;;;;;20.38;19.20;;;7.80;93.80;;;;;;5086917;28;20715;-71
2021/11/03 03:52:39;;;;;;;19.92;18.83;;;7.80;93.80;;;;;;5088397;28;20302;-71
2021/11/03 03:55:08;;;;;;;19.88;18.88;;;7.80;93.60;;;;;;5086239;28;20191;-71
2021/11/03 03:57:35;;;;;;;20.80;19.60;;;7.90;93.40;;;;;;5087657;28;20283;-71
2021/11/03 04:00:04;;;;;;;21.00;19.70;;;7.90;93.10;;;;;;5084319;28;20192;-71
2021/11/03 04:02:31;;;;;;;21.42;20.23;;;7.90;93.50;;;;;;5090719;28;20297;-71
2021/11/03 04:05:00;;;;;;;22.65;21.15;;;7.90;92.90;;;;;;5083962;28;20205;-71
2021/11/03 04:07:26;;;;;;;21.58;20.30;;;7.80;93.30;;;;;;5089800;28;20197;-71
2021/11/03 04:09:53;;;;;;;23.92;22.60;;;7.80;92.90;;;;;;5085156;28;20538;-72
2021/11/03 04:12:20;;;;;;;21.17;20.08;;;7.80;92.80;;;;;;5087715;28;20302;-71
2021/11/03 04:14:47;;;;;;;22.58;21.15;;;7.90;92.10;;;;;;5083231;28;20198;-71
2021/11/03 04:17:14;;;;;;;23.52;22.13;;;7.80;92.10;;;;;;5088148;28;20627;-71
2021/11/03 04:19:41;;;;;;;22.42;21.13;;;7.80;92.30;;;;;;5085832;28;20206;-71
2021/11/03 04:22:09;;;;;;;24.13;22.40;;;7.70;93.00;;;;;;5088813;28;20229;-71
2021/11/03 04:24:36;;;;;;;161.20;36.00;;;7.70;92.70;;;;;;5088595;28;20210;-71
2021/11/03 04:27:04;;;;;;;22.60;21.20;;;7.70;93.50;;;;;;5088504;28;20206;-71
2021/11/03 04:29:31;;;;;;;24.08;22.67;;;7.60;93.80;;;;;;5084972;28;20215;-71
2021/11/03 04:31:58;;;;;;;22.08;20.67;;;7.60;93.60;;;;;;5086821;28;20211;-71
2021/11/03 04:34:25;;;;;;;23.02;21.67;;;7.50;94.00;;;;;;5085084;28;20203;-72
2021/11/03 04:36:52;;;;;;;23.35;22.05;;;7.50;93.70;;;;;;5084565;28;20199;-71
2021/11/03 04:39:20;;;;;;;21.55;20.35;;;7.60;93.60;;;;;;5090482;28;20226;-71
2021/11/03 04:41:47;;;;;;;23.50;21.80;;;7.70;93.30;;;;;;5090534;28;20303;-71
2021/11/03 04:44:15;;;;;;;23.80;22.35;;;7.70;93.40;;;;;;5088856;28;20192;-71
2021/11/03 04:46:43;;;;;;;23.85;22.40;;;7.60;94.70;;;;;;5088689;28;20207;-71
2021/11/03 04:49:10;;;;;;;24.15;22.65;;;7.60;94.30;;;;;;5090844;28;20286;-71
2021/11/03 04:51:37;;;;;;;23.75;22.35;;;7.50;94.20;;;;;;5089875;28;20215;-71
2021/11/03 04:54:04;;;;;;;23.65;22.25;;;7.50;94.20;;;;;;5091412;28;20199;-71
2021/11/03 04:56:38;;;;;;;24.13;22.73;;;7.60;94.00;;;;;;5087567;28;20549;-71
2021/11/03 04:59:05;;;;;;;25.88;24.02;;;7.60;93.40;;;;;;5083793;28;20206;-71
2021/11/03 05:01:33;;;;;;;433.02;65.90;;;7.60;94.70;;;;;;5087707;28;20219;-71
2021/11/03 05:04:00;;;;;;;22.88;21.58;;;7.60;94.50;;;;;;5093091;28;20294;-71
2021/11/03 05:06:36;;;;;;;22.48;21.00;;;7.60;95.40;;;;;;5088075;28;20201;-71
2021/11/03 05:09:06;;;;;;;21.30;20.10;;;7.60;94.40;;;;;;5091633;28;20195;-71
2021/11/03 05:11:34;;;;;;;24.33;22.70;;;7.60;94.20;;;;;;5087823;28;20278;-71
2021/11/03 05:14:02;;;;;;;23.77;22.33;;;7.70;93.30;;;;;;5091692;28;20833;-71
2021/11/03 05:16:29;;;;;;;22.35;20.98;;;7.60;93.30;;;;;;5087419;28;20203;-71
2021/11/03 05:18:57;;;;;;;22.75;21.38;;;7.80;92.50;;;;;;5091035;28;20205;-71
2021/11/03 05:21:25;;;;;;;24.10;22.52;;;7.80;92.90;;;;;;5086711;28;20763;-71
2021/11/03 05:23:52;;;;;;;30.83;21.52;;;7.80;93.90;;;;;;5089123;27;20480;-69
2021/11/03 05:26:22;;;;;;;22.27;20.98;;;8.00;94.10;;;;;;5087304;28;20199;-72
2021/11/03 05:28:56;;;;;;;22.70;21.30;;;7.90;93.10;;;;;;5088729;28;20253;-72
2021/11/03 05:31:23;;;;;;;21.77;20.38;;;7.80;93.30;;;;;;5087618;28;20191;-72
2021/11/03 05:33:50;;;;;;;22.33;21.00;;;7.80;93.20;;;;;;5092613;28;20191;-72
2021/11/03 05:36:19;;;;;;;21.88;20.48;;;7.80;93.00;;;;;;5081947;28;20204;-73
2021/11/03 05:38:46;;;;;;;23.77;22.38;;;7.80;95.00;;;;;;5081971;28;20195;-70
2021/11/03 05:41:13;;;;;;;21.98;20.55;;;7.70;94.40;;;;;;5087280;28;20313;-71
2021/11/03 05:43:40;;;;;;;21.55;20.23;;;7.80;94.20;;;;;;5086021;28;20318;-73
2021/11/03 05:46:09;;;;;;;22.60;21.05;;;7.90;94.00;;;;;;5086663;28;20195;-74
2021/11/03 05:48:39;;;;;;;22.67;21.27;;;7.90;93.70;;;;;;5089230;28;20199;-71
2021/11/03 05:51:07;;;;;;;22.40;21.20;;;7.90;93.50;;;;;;5086032;28;20828;-72
2021/11/03 05:53:37;;;;;;;24.88;22.67;;;7.80;93.60;;;;;;5084147;28;20264;-74
2021/11/03 05:56:05;;;;;;;23.40;22.10;;;7.80;95.00;;;;;;5087258;28;20206;-77
2021/11/03 05:58:32;;;;;;;22.33;21.05;;;7.70;94.10;;;;;;5092090;28;20204;-73
2021/11/03 06:00:59;;;;;;;23.02;21.77;;;7.80;93.60;;;;;;5085687;28;20200;-73
2021/11/03 06:03:28;;;;;;;22.38;21.17;;;7.80;93.30;;;;;;5088199;28;20218;-77
2021/11/03 06:05:55;;;;;;;22.08;20.88;;;7.80;93.40;;;;;;5086372;28;20234;-76
2021/11/03 06:08:21;;;;;;;22.55;21.30;;;7.90;93.10;;;;;;5090041;28;20209;-78
2021/11/03 06:10:53;;;;;;;23.88;22.48;;;7.90;93.00;;;;;;5088244;28;20563;-75
2021/11/03 06:13:21;;;;;;;23.92;22.63;;;7.90;93.10;;;;;;5085792;28;20223;-76
2021/11/03 06:15:48;;;;;;;23.90;22.20;;;7.90;93.20;;;;;;5086088;28;20549;-74
2021/11/03 06:18:16;;;;;;;250.20;47.45;;;8.00;93.50;;;;;;5090171;28;20294;-74
2021/11/03 06:20:44;;;;;;;25.70;23.85;;;7.90;93.80;;;;;;5086044;28;20211;-73
2021/11/03 06:23:11;;;;;;;23.15;21.60;;;7.80;93.60;;;;;;5089203;28;20219;-74
2021/11/03 06:25:38;;;;;;;25.83;24.25;;;7.80;93.50;;;;;;5086992;28;20296;-76
2021/11/03 06:28:06;;;;;;;21.75;20.52;;;7.90;93.00;;;;;;5090659;28;20206;-75
2021/11/03 06:30:37;;;;;;;337.92;52.13;;;7.80;93.30;;;;;;5080512;28;20196;-73
2021/11/03 06:33:04;;;;;;;22.58;21.27;;;7.80;94.30;;;;;;5087726;28;20215;-72
2021/11/03 06:35:33;;;;;;;22.75;21.48;;;7.90;93.90;;;;;;5079188;28;20596;-72
2021/11/03 06:38:03;;;;;;;24.02;22.50;;;8.00;93.00;;;;;;5084740;28;20198;-72
2021/11/03 06:40:30;;;;;;;22.95;21.55;;;7.90;93.10;;;;;;5087347;28;20202;-71
2021/11/03 06:42:57;;;;;;;22.38;21.08;;;8.00;93.20;;;;;;5088760;28;20215;-70
2021/11/03 06:45:25;;;;;;;22.17;20.75;;;8.00;92.60;;;;;;5080873;28;20195;-73
2021/11/03 06:47:53;;;;;;;23.05;21.25;;;8.00;92.80;;;;;;5090110;28;20195;-71
2021/11/03 06:50:22;;;;;;;22.90;21.60;;;8.00;93.10;;;;;;5085188;28;20919;-70
2021/11/03 06:52:52;;;;;;;21.75;20.33;;;8.10;92.30;;;;;;5086795;28;20588;-70
2021/11/03 06:55:24;;;;;;;23.67;22.38;;;8.10;91.60;;;;;;5085388;28;20211;-71
2021/11/03 06:57:51;;;;;;;22.42;21.15;;;8.10;91.60;;;;;;5089328;28;20206;-71
2021/11/03 07:00:26;;;;;;;22.65;21.35;;;8.20;90.90;;;;;;5085320;28;20640;-71
2021/11/03 07:02:53;;;;;;;23.33;22.02;;;8.10;90.20;;;;;;5086527;28;20235;-70
2021/11/03 07:05:21;;;;;;;21.67;20.27;;;8.10;91.00;;;;;;5082600;28;20215;-70
2021/11/03 07:07:48;;;;;;;22.23;20.83;;;8.20;90.80;;;;;;5095696;28;20279;-70
2021/11/03 07:10:23;;;;;;;21.17;19.88;;;8.30;92.60;;;;;;5087305;28;20187;-71
2021/11/03 07:12:50;;;;;;;22.70;21.30;;;8.50;91.60;;;;;;5088269;28;20667;-73
2021/11/03 07:15:18;;;;;;;22.23;20.88;;;8.50;91.40;;;;;;5085388;28;20233;-73
2021/11/03 07:17:46;;;;;;;23.48;22.08;;;8.60;90.80;;;;;;5088322;28;20282;-71
2021/11/03 07:20:13;;;;;;;22.60;21.30;;;8.60;90.40;;;;;;5086168;28;20927;-72
2021/11/03 07:22:40;;;;;;;22.75;21.50;;;8.70;90.20;;;;;;5088349;28;20318;-72
2021/11/03 07:25:09;;;;;;;25.75;24.08;;;8.70;90.10;;;;;;5084421;28;20204;-72
2021/11/03 07:27:38;;;;;;;23.45;21.98;;;8.70;90.10;;;;;;5095634;28;20724;-72
2021/11/03 07:30:06;;;;;;;24.95;22.92;;;8.70;91.40;;;;;;5086632;28;20839;-73
2021/11/03 07:32:34;;;;;;;23.77;22.27;;;8.70;90.10;;;;;;5085940;28;20292;-73
2021/11/03 07:35:01;;;;;;;23.15;21.70;;;8.80;89.70;;;;;;5081721;28;20191;-74
2021/11/03 07:37:28;;;;;;;26.65;25.15;;;8.80;89.90;;;;;;5087035;28;20284;-76
2021/11/03 07:39:55;;;;;;;24.58;23.08;;;9.00;89.90;;;;;;5087246;28;20206;-76
2021/11/03 07:42:22;;;;;;;24.15;22.58;;;9.00;89.00;;;;;;5088532;28;20230;-75
2021/11/03 07:44:50;;;;;;;22.58;21.15;;;9.10;88.50;;;;;;5085124;28;20196;-72
2021/11/03 07:47:18;;;;;;;23.98;22.15;;;9.10;90.20;;;;;;5088862;28;20296;-72
2021/11/03 07:49:45;;;;;;;27.05;25.55;;;9.10;89.30;;;;;;5085587;28;20565;-73
2021/11/03 07:52:12;;;;;;;24.60;22.55;;;9.10;89.90;;;;;;5088484;28;20207;-74
2021/11/03 07:54:41;;;;;;;22.33;20.98;;;9.20;88.90;;;;;;5085361;28;20191;-73
2021/11/03 07:57:08;;;;;;;22.52;21.13;;;9.30;88.50;;;;;;5087574;28;20203;-73
2021/11/03 07:59:38;;;;;;;22.27;21.10;;;9.40;87.70;;;;;;5085053;28;20199;-72
2021/11/03 08:02:07;;;;;;;23.75;22.45;;;9.50;88.10;;;;;;5086795;28;20484;-73
2021/11/03 08:04:34;;;;;;;21.95;20.75;;;9.70;87.40;;;;;;5084959;28;20210;-73
2021/11/03 08:07:01;;;;;;;23.00;21.77;;;9.70;88.30;;;;;;5087219;28;20637;-75
2021/11/03 08:09:28;;;;;;;24.90;23.60;;;9.80;86.00;;;;;;5087982;28;20192;-75
2021/11/03 08:11:58;;;;;;;22.70;21.40;;;9.60;85.40;;;;;;5088427;28;20485;-73
2021/11/03 08:14:27;;;;;;;22.93;21.33;;;9.70;86.10;;;;;;5090648;28;20898;-73
2021/11/03 08:16:57;;;;;;;23.20;21.90;;;9.80;85.80;;;;;;5090628;27;20475;-72
2021/11/03 08:19:43;;;;;;;25.40;23.70;;;9.90;85.80;;;;;;5090155;28;20506;-73
2021/11/03 08:22:10;;;;;;;23.07;21.67;;;9.90;87.70;;;;;;5082113;28;20487;-73
2021/11/03 08:24:38;;;;;;;22.53;21.23;;;10.10;86.90;;;;;;5089306;28;20552;-73
2021/11/03 08:27:07;;;;;;;24.30;22.93;;;10.10;85.90;;;;;;5089922;28;20459;-71
2021/11/03 08:29:35;;;;;;;24.70;23.10;;;10.20;85.10;;;;;;5090157;28;20484;-74
2021/11/03 08:32:02;;;;;;;22.80;21.60;;;10.20;85.10;;;;;;5091761;28;20468;-72
2021/11/03 08:34:34;;;;;;;25.83;24.43;;;10.30;84.00;;;;;;5088777;27;20468;-72
2021/11/03 08:37:05;;;;;;;26.27;24.57;;;10.30;82.80;;;;;;5087021;28;20557;-73
2021/11/03 08:39:35;;;;;;;27.30;25.60;;;10.40;83.00;;;;;;5090510;28;20457;-74
2021/11/03 08:42:03;;;;;;;24.17;22.77;;;10.40;83.40;;;;;;5090720;28;20480;-72
2021/11/03 08:44:30;;;;;;;24.10;22.80;;;10.50;83.70;;;;;;5081955;28;20475;-73
2021/11/03 08:46:59;;;;;;;24.20;22.90;;;10.30;84.50;;;;;;5088055;28;20958;-75
2021/11/03 08:49:25;;;;;;;23.87;22.47;;;10.30;84.60;;;;;;5090105;28;20484;-74
2021/11/03 08:51:54;;;;;;;23.83;22.53;;;10.30;84.50;;;;;;5078577;28;20477;-74
2021/11/03 08:54:22;;;;;;;24.47;22.97;;;10.20;84.50;;;;;;5090049;28;20461;-75
2021/11/03 08:56:50;;;;;;;23.67;22.37;;;10.30;84.50;;;;;;5090441;28;20480;-74
2021/11/03 08:59:17;;;;;;;24.07;22.57;;;10.30;86.30;;;;;;5090972;28;20467;-72
2021/11/03 09:01:44;;;;;;;26.13;24.63;;;10.40;85.00;;;;;;5095161;28;20560;-72
2021/11/03 09:04:12;;;;;;;26.27;24.83;;;10.30;84.80;;;;;;5085838;28;20962;-74
2021/11/03 09:06:42;;;;;;;25.80;24.43;;;10.50;83.80;;;;;;5086136;28;20458;-72
2021/11/03 09:09:10;;;;;;;25.27;23.97;;;10.60;83.00;;;;;;5091405;28;20483;-74
2021/11/03 09:11:37;;;;;;;25.47;23.87;;;10.50;82.90;;;;;;5086840;28;20483;-73
2021/11/03 09:14:04;;;;;;;23.80;22.30;;;10.50;82.90;;;;;;5093461;28;20524;-73
2021/11/03 09:16:33;;;;;;;28.27;26.10;;;10.60;83.20;;;;;;5082996;28;20457;-73
2021/11/03 09:19:00;;;;;;;24.20;22.70;;;10.70;83.50;;;;;;5090909;28;20463;-74
2021/11/03 09:21:27;;;;;;;28.57;26.83;;;10.90;82.40;;;;;;5085534;28;20465;-74
2021/11/03 09:23:54;;;;;;;24.40;23.10;;;11.00;81.50;;;;;;5085244;28;20481;-74
2021/11/03 09:26:23;;;;;;;25.77;24.20;;;11.30;80.80;;;;;;5081728;28;20570;-75
2021/11/03 09:28:52;;;;;;;24.20;22.80;;;11.50;79.60;;;;;;5089633;28;20462;-75
2021/11/03 09:31:19;;;;;;;25.77;24.37;;;11.60;79.20;;;;;;5087899;28;20454;-74
2021/11/03 09:33:49;;;;;;;27.00;25.50;;;11.70;80.00;;;;;;5088851;28;20600;-74
2021/11/03 09:36:20;;;;;;;23.77;22.47;;;12.00;80.20;;;;;;5088271;28;20464;-73
2021/11/03 09:38:48;;;;;;;26.20;24.90;;;12.10;79.00;;;;;;5089944;28;20452;-72
2021/11/03 09:41:26;;;;;;;25.90;24.40;;;12.20;77.60;;;;;;5084252;28;20540;-73
2021/11/03 09:43:56;;;;;;;27.60;26.10;;;12.30;75.90;;;;;;5079133;28;20486;-73
2021/11/03 09:46:28;;;;;;;27.80;26.20;;;12.40;75.50;;;;;;5085375;28;20553;-73
2021/11/03 09:49:05;;;;;;;28.90;27.20;;;12.50;73.70;;;;;;5089849;28;21201;-75
2021/11/03 09:51:34;;;;;;;27.00;25.40;;;12.50;73.40;;;;;;5088168;28;20449;-73
2021/11/03 09:54:10;;;;;;;29.87;28.27;;;12.50;73.20;;;;;;5089885;28;20459;-74
2021/11/03 09:56:43;;;;;;;27.43;25.87;;;12.50;74.10;;;;;;5087014;28;20578;-74
2021/11/03 09:59:29;;;;;;;27.47;25.87;;;12.50;73.60;;;;;;5088423;28;20540;-74
2021/11/03 10:02:04;;;;;;;27.07;25.47;;;12.60;75.70;;;;;;5085276;28;20477;-75
2021/11/03 10:04:59;;;;;;;26.93;25.23;;;12.60;77.10;;;;;;5088277;28;21088;-77
2021/11/03 10:07:42;;;;;;;25.90;24.50;;;12.70;78.30;;;;;;5082081;28;20461;-74
2021/11/03 10:10:20;;;;;;;25.13;23.43;;;12.70;76.20;;;;;;5083057;28;20532;-76
2021/11/03 10:12:49;;;;;;;26.80;25.20;;;12.60;75.10;;;;;;5082894;28;20477;-74
2021/11/03 10:15:19;;;;;;;25.60;24.20;;;12.50;74.70;;;;;;5087679;28;20456;-73
2021/11/03 10:18:05;;;;;;;27.73;26.33;;;12.50;74.10;;;;;;5083299;28;20479;-73
2021/11/03 10:20:40;;;;;;;29.43;27.73;;;12.60;74.10;;;;;;5088117;28;20455;-74
2021/11/03 10:23:11;;;;;;;27.40;25.63;;;12.50;74.60;;;;;;5089636;28;20473;-74
2021/11/03 10:25:38;;;;;;;26.77;25.20;;;12.50;74.30;;;;;;5084950;28;20465;-73
2021/11/03 10:28:06;;;;;;;27.43;25.83;;;12.40;74.80;;;;;;5088628;28;20475;-74
2021/11/03 10:30:50;;;;;;;28.40;26.50;;;12.40;74.60;;;;;;5085798;28;20555;-74
2021/11/03 10:33:23;;;;;;;29.47;27.87;;;12.40;74.70;;;;;;5081063;28;20477;-74
2021/11/03 10:36:02;;;;;;;26.60;25.00;;;12.40;75.70;;;;;;5083830;28;20882;-74
2021/11/03 10:38:41;;;;;;;26.80;25.20;;;12.60;75.20;;;;;;5085209;28;21009;-73
2021/11/03 10:41:19;;;;;;;25.30;24.00;;;12.60;74.10;;;;;;5084132;28;20970;-75
2021/11/03 10:44:00;;;;;;;28.13;26.33;;;12.60;74.30;;;;;;5084948;28;20473;-73
2021/11/03 10:46:31;;;;;;;27.30;25.67;;;12.70;74.30;;;;;;5084373;28;20815;-76
2021/11/03 10:52:17;;;;;;;25.70;24.10;;;12.80;70.10;;;;;;5085169;28;20850;-72
2021/11/03 10:54:47;;;;;;;25.50;24.00;;;12.80;70.40;;;;;;5085538;28;20491;-73
2021/11/03 10:57:20;;;;;;;27.77;26.07;;;12.80;70.70;;;;;;5092283;28;20460;-72
2021/11/03 10:59:50;;;;;;;25.50;24.20;;;12.80;71.30;;;;;;5083778;28;20454;-73
2021/11/03 11:02:24;;;;;;;25.77;24.37;;;12.90;71.20;;;;;;5084202;28;20503;-72
2021/11/03 11:04:53;;;;;;;25.40;24.00;;;13.00;70.80;;;;;;5075738;28;20844;-73
2021/11/03 11:07:27;;;;;;;27.03;25.63;;;13.10;71.10;;;;;;5082669;28;20457;-74
2021/11/03 11:10:00;;;;;;;25.17;23.87;;;13.10;71.10;;;;;;5085313;28;20452;-74
2021/11/03 11:12:29;;;;;;;26.37;24.83;;;13.20;71.10;;;;;;5088598;28;20516;-74
2021/11/03 11:15:01;;;;;;;26.50;25.10;;;13.10;72.50;;;;;;5085707;28;20461;-74
2021/11/03 11:17:33;;;;;;;26.10;24.60;;;13.10;70.10;;;;;;5086810;28;20546;-74
2021/11/03 11:20:11;;;;;;;26.20;24.73;;;13.00;69.00;;;;;;5086057;28;20536;-74
2021/11/03 11:22:51;;;;;;;26.37;24.80;;;13.00;68.30;;;;;;5087949;28;20480;-74
2021/11/03 11:25:22;;;;;;;26.20;24.50;;;13.00;69.10;;;;;;5083728;28;20585;-74
2021/11/03 11:28:18;;;;;;;26.93;25.33;;;12.80;70.80;;;;;;5087575;28;20479;-75
2021/11/03 11:30:51;;;;;;;26.70;25.00;;;12.80;69.90;;;;;;5086041;28;20457;-74
2021/11/03 11:33:32;;;;;;;26.40;25.03;;;12.90;69.80;;;;;;5081890;28;20567;-74
2021/11/03 11:36:16;;;;;;;25.93;24.53;;;12.80;70.20;;;;;;5081703;28;20477;-74
2021/11/03 11:38:58;;;;;;;26.43;25.00;;;12.70;70.70;;;;;;5078272;28;20453;-75
2021/11/03 11:41:30;;;;;;;25.10;23.60;;;12.60;71.30;;;;;;5084879;28;20445;-74
2021/11/03 11:44:02;;;;;;;25.97;24.47;;;12.60;72.30;;;;;;5086921;28;20477;-74
2021/11/03 11:46:33;;;;;;;27.70;26.00;;;12.50;72.00;;;;;;5088031;28;20552;-74
2021/11/03 11:49:09;;;;;;;28.27;26.77;;;12.40;71.70;;;;;;5088354;28;20969;-74
2021/11/03 11:51:40;;;;;;;26.90;25.20;;;12.30;70.60;;;;;;5080578;28;20509;-74
2021/11/03 11:54:25;;;;;;;26.43;25.03;;;12.30;71.80;;;;;;5089377;28;20441;-75
2021/11/03 11:57:26;;;;;;;24.90;23.60;;;12.50;71.20;;;;;;5092907;28;20464;-75
2021/11/03 12:00:22;;;;;;;26.17;24.37;;;12.40;70.40;;;;;;5056892;28;20460;-75
2021/11/03 12:03:17;;;;;;;26.60;25.13;;;12.30;71.10;;;;;;5083453;28;20477;-77
2021/11/03 12:05:51;;;;;;;28.77;27.43;;;12.20;72.00;;;;;;5084190;28;20453;-78
2021/11/03 12:08:22;;;;;;;24.80;23.33;;;12.20;72.30;;;;;;5090729;28;20464;-77
2021/11/03 12:11:25;;;;;;;24.77;23.47;;;12.30;72.70;;;;;;5088210;28;20457;-77
2021/11/03 12:14:24;;;;;;;25.57;24.10;;;12.50;70.70;;;;;;5008561;28;20452;-75
2021/11/03 12:16:58;;;;;;;24.93;23.53;;;12.50;70.70;;;;;;5006155;28;20484;-75
2021/11/03 12:19:53;;;;;;;25.77;24.30;;;12.30;72.30;;;;;;5063848;28;20451;-74
2021/11/03 12:22:49;;;;;;;24.57;23.27;;;12.20;72.30;;;;;;5090602;28;20575;-76
2021/11/03 12:25:45;;;;;;;24.93;23.53;;;12.30;72.30;;;;;;5086146;28;20457;-75
2021/11/03 12:28:48;;;;;;;25.30;23.90;;;12.30;72.30;;;;;;5082344;28;20566;-75
2021/11/03 12:31:28;;;;;;;25.80;24.20;;;12.40;72.50;;;;;;5074101;28;20453;-74
2021/11/03 12:34:21;;;;;;;25.60;24.10;;;12.50;72.60;;;;;;5088207;28;20540;-73
2021/11/03 12:37:21;;;;;;;24.63;23.13;;;12.70;72.40;;;;;;5089586;28;20571;-75
2021/11/03 12:40:24;;;;;;;25.53;23.97;;;12.70;73.60;;;;;;5085098;28;20460;-73
2021/11/03 12:43:04;;;;;;;25.07;23.67;;;12.70;75.20;;;;;;5086865;28;20472;-73
2021/11/03 12:45:35;;;;;;;24.50;23.07;;;12.80;72.70;;;;;;5086829;28;20455;-73
2021/11/03 12:48:03;;;;;;;24.80;23.40;;;12.70;72.90;;;;;;5088207;28;20469;-73
2021/11/03 12:50:35;;;;;;;24.40;23.00;;;12.60;73.60;;;;;;5088975;28;20581;-74
2021/11/03 12:53:14;;;;;;;24.23;22.93;;;12.50;74.10;;;;;;5090148;28;20566;-75
2021/11/03 12:55:52;;;;;;;24.90;23.60;;;12.50;73.50;;;;;;5088621;28;20479;-74